createdAt,value
2023-01-13T00:01:20.633Z,59.50
2023-01-13T00:03:48.633Z,59.40
2023-01-13T00:06:21.613Z,59.50
2023-01-13T00:08:50.869Z,59.50
2023-01-13T00:11:19.612Z,59.50
2023-01-13T00:13:47.100Z,59.50
2023-01-13T00:16:16.852Z,59.40
2023-01-13T00:18:44.374Z,59.20
2023-01-13T00:21:17.534Z,59.10
2023-01-13T00:23:45.116Z,59.10
2023-01-13T00:26:18.354Z,59.00
2023-01-13T00:28:45.456Z,59.00
2023-01-13T00:31:18.439Z,59.10
2023-01-13T00:33:45.624Z,59.10
2023-01-13T00:36:14.427Z,59.10
2023-01-13T00:38:43.184Z,59.20
2023-01-13T00:41:15.817Z,59.20
2023-01-13T00:43:43.625Z,59.20
2023-01-13T00:46:12.901Z,59.80
2023-01-13T00:48:40.283Z,59.40
2023-01-13T00:51:18.902Z,59.30
2023-01-13T00:53:48.128Z,59.30
2023-01-13T00:56:30.520Z,59.40
2023-01-13T00:59:05.427Z,59.40
2023-01-13T01:01:33.044Z,59.40
2023-01-13T01:04:00.267Z,59.50
2023-01-13T01:06:28.276Z,59.70
2023-01-13T01:08:56.576Z,59.80
2023-01-13T01:11:29.076Z,59.90
2023-01-13T01:13:57.758Z,60.00
2023-01-13T01:16:27.428Z,60.30
2023-01-13T01:18:55.567Z,60.50
2023-01-13T01:21:24.955Z,60.60
2023-01-13T01:23:52.568Z,60.70
2023-01-13T01:26:27.574Z,60.70
2023-01-13T01:28:55.260Z,60.80
2023-01-13T01:31:24.391Z,60.70
2023-01-13T01:33:53.027Z,60.80
2023-01-13T01:36:21.901Z,60.80
2023-01-13T01:38:49.586Z,61.00
2023-01-13T01:41:22.572Z,61.30
2023-01-13T01:44:03.126Z,61.50
2023-01-13T01:46:39.405Z,61.70
2023-01-13T01:49:21.919Z,61.70
2023-01-13T01:51:59.948Z,61.80
2023-01-13T01:54:39.645Z,62.00
2023-01-13T01:57:17.877Z,62.10
2023-01-13T01:59:45.800Z,62.20
2023-01-13T02:02:13.321Z,62.20
2023-01-13T02:04:51.149Z,62.20
2023-01-13T02:07:25.407Z,62.40
2023-01-13T02:09:54.520Z,62.40
2023-01-13T02:12:32.017Z,62.50
2023-01-13T02:15:07.794Z,63.30
2023-01-13T02:17:34.855Z,62.60
2023-01-13T02:20:10.827Z,63.00
2023-01-13T02:23:29.956Z,63.20
2023-01-13T02:26:09.054Z,63.40
2023-01-13T02:29:01.974Z,63.60
2023-01-13T02:31:45.278Z,63.70
2023-01-13T02:34:30.944Z,63.90
2023-01-13T02:37:18.130Z,64.10
2023-01-13T02:39:47.993Z,64.20
2023-01-13T02:42:50.850Z,64.10
2023-01-13T02:45:32.374Z,64.00
2023-01-13T02:48:02.167Z,64.10
2023-01-13T02:50:51.888Z,64.20
2023-01-13T02:53:34.783Z,64.30
2023-01-13T02:56:03.769Z,64.30
2023-01-13T02:58:32.837Z,64.40
2023-01-13T03:01:00.001Z,64.50
2023-01-13T03:03:27.289Z,64.60
2023-01-13T03:06:03.307Z,64.70
2023-01-13T03:08:43.766Z,64.80
2023-01-13T03:11:13.418Z,65.00
2023-01-13T03:13:51.015Z,65.20
2023-01-13T03:16:35.933Z,65.40
2023-01-13T03:19:43.557Z,65.40
2023-01-13T03:22:38.231Z,65.60
2023-01-13T03:25:13.884Z,65.80
2023-01-13T03:28:03.418Z,65.80
2023-01-13T03:30:41.129Z,66.60
2023-01-13T03:33:21.710Z,65.90
2023-01-13T03:35:52.976Z,65.90
2023-01-13T03:38:33.951Z,65.90
2023-01-13T03:41:13.479Z,65.90
2023-01-13T03:44:10.914Z,66.00
2023-01-13T03:47:25.149Z,66.00
2023-01-13T03:50:29.773Z,66.00
2023-01-13T03:53:06.735Z,65.80
2023-01-13T03:55:41.427Z,65.90
2023-01-13T03:58:16.115Z,65.80
2023-01-13T04:01:05.481Z,65.80
2023-01-13T04:03:59.442Z,66.00
2023-01-13T04:06:34.858Z,66.00
2023-01-13T04:09:29.647Z,66.10
2023-01-13T04:12:53.435Z,66.00
2023-01-13T04:15:28.040Z,66.10
2023-01-13T04:18:02.039Z,66.20
2023-01-13T04:20:28.978Z,66.40
2023-01-13T04:22:55.871Z,66.60
2023-01-13T04:25:22.965Z,66.70
2023-01-13T04:27:51.929Z,66.80
2023-01-13T04:30:18.941Z,66.90
2023-01-13T04:32:45.855Z,67.10
2023-01-13T04:35:12.848Z,67.30
2023-01-13T04:37:39.866Z,67.40
2023-01-13T04:40:07.984Z,67.60
2023-01-13T04:42:34.955Z,67.60
2023-01-13T04:45:02.002Z,67.60
2023-01-13T04:47:30.069Z,67.70
2023-01-13T04:49:57.102Z,67.80
2023-01-13T04:52:24.074Z,67.90
2023-01-13T04:54:51.101Z,68.10
2023-01-13T04:57:18.224Z,68.30
2023-01-13T04:59:45.283Z,68.60
2023-01-13T05:02:19.746Z,68.70
2023-01-13T05:04:47.834Z,68.80
2023-01-13T05:07:16.871Z,68.80
2023-01-13T05:09:43.879Z,69.00
2023-01-13T05:12:29.636Z,69.00
2023-01-13T05:15:15.108Z,69.10
2023-01-13T05:17:42.604Z,69.10
2023-01-13T05:20:10.763Z,69.20
2023-01-13T05:22:56.163Z,69.40
2023-01-13T05:25:25.168Z,69.50
2023-01-13T05:27:55.036Z,69.50
2023-01-13T05:30:24.036Z,69.60
2023-01-13T05:32:51.005Z,69.80
2023-01-13T05:35:17.985Z,70.00
2023-01-13T05:37:46.452Z,70.20
2023-01-13T05:40:34.254Z,70.40
2023-01-13T05:43:20.179Z,70.70
2023-01-13T05:45:52.902Z,70.90
2023-01-13T05:48:23.067Z,71.20
2023-01-13T05:50:51.105Z,71.40
2023-01-13T05:53:18.380Z,71.50
2023-01-13T05:55:45.724Z,71.70
2023-01-13T05:58:15.308Z,71.80
2023-01-13T06:00:42.992Z,72.60
2023-01-13T06:03:10.560Z,72.00
2023-01-13T06:05:38.898Z,72.00
2023-01-13T06:08:07.508Z,72.00
2023-01-13T06:10:35.339Z,72.10
2023-01-13T06:13:02.736Z,72.20
2023-01-13T06:15:29.857Z,72.30
2023-01-13T06:17:57.238Z,72.30
2023-01-13T06:20:25.138Z,72.40
2023-01-13T06:22:53.933Z,72.50
2023-01-13T06:25:42.749Z,72.40
2023-01-13T06:28:10.377Z,72.60
2023-01-13T06:30:45.139Z,72.60
2023-01-13T06:33:15.617Z,72.50
2023-01-13T06:35:46.829Z,72.60
2023-01-13T06:38:21.917Z,72.80
2023-01-13T06:40:50.232Z,73.00
2023-01-13T06:43:19.457Z,74.00
2023-01-13T06:45:51.230Z,73.50
2023-01-13T06:48:21.752Z,73.70
2023-01-13T06:50:49.806Z,74.00
2023-01-13T06:53:17.011Z,74.00
2023-01-13T06:55:45.135Z,74.10
2023-01-13T06:58:12.082Z,74.20
2023-01-13T07:00:39.406Z,74.40
2023-01-13T07:03:14.986Z,74.70
2023-01-13T07:05:43.677Z,74.80
2023-01-13T07:08:11.610Z,75.60
2023-01-13T07:10:38.745Z,75.00
2023-01-13T07:13:24.967Z,75.10
2023-01-13T07:16:00.745Z,75.20
2023-01-13T07:18:43.957Z,75.30
2023-01-13T07:21:20.290Z,75.40
2023-01-13T07:23:48.498Z,76.10
2023-01-13T07:26:15.955Z,75.30
2023-01-13T07:28:43.004Z,75.10
2023-01-13T07:31:17.402Z,75.10
2023-01-13T07:33:45.488Z,75.10
2023-01-13T07:36:13.161Z,75.00
2023-01-13T07:38:41.092Z,75.00
2023-01-13T07:41:29.979Z,75.10
2023-01-13T07:43:57.098Z,75.20
2023-01-13T07:46:23.983Z,75.40
2023-01-13T07:48:50.961Z,75.60
2023-01-13T07:51:18.211Z,75.80
2023-01-13T07:53:45.133Z,76.30
2023-01-13T07:56:12.037Z,77.80
2023-01-13T07:58:39.079Z,79.20
2023-01-13T08:01:12.178Z,80.40
2023-01-13T08:03:40.137Z,81.90
2023-01-13T08:06:07.650Z,83.40
2023-01-13T08:08:34.584Z,84.90
2023-01-13T08:11:03.381Z,86.20
2023-01-13T08:13:30.517Z,87.50
2023-01-13T08:16:06.229Z,88.60
2023-01-13T08:18:34.586Z,89.80
2023-01-13T08:21:06.231Z,90.20
2023-01-13T08:23:33.631Z,90.40
2023-01-13T08:26:07.052Z,90.70
2023-01-13T08:28:34.192Z,91.00
2023-01-13T08:31:06.590Z,91.20
2023-01-13T08:33:34.178Z,91.50
2023-01-13T08:36:07.189Z,91.60
2023-01-13T08:38:34.701Z,91.70
2023-01-13T08:41:01.929Z,91.80
2023-01-13T08:43:28.807Z,91.90
2023-01-13T08:46:00.631Z,92.10
2023-01-13T08:48:31.288Z,92.10
2023-01-13T08:51:03.233Z,92.20
2023-01-13T08:53:30.237Z,92.30
2023-01-13T08:55:57.381Z,92.50
2023-01-13T08:58:24.480Z,92.30
2023-01-13T09:00:51.455Z,92.30
2023-01-13T09:03:18.352Z,92.40
2023-01-13T09:05:45.378Z,92.20
2023-01-13T09:08:12.924Z,92.10
2023-01-13T09:10:40.554Z,92.10
2023-01-13T09:13:12.479Z,91.80
2023-01-13T09:15:45.379Z,91.80
2023-01-13T09:18:12.615Z,91.40
2023-01-13T09:20:39.635Z,91.30
2023-01-13T09:23:10.089Z,91.40
2023-01-13T09:25:37.766Z,91.00
2023-01-13T09:28:08.644Z,90.70
2023-01-13T09:30:36.559Z,90.50
2023-01-13T09:33:21.873Z,90.50
2023-01-13T09:35:48.801Z,90.30
2023-01-13T09:38:15.668Z,90.10
2023-01-13T09:40:44.084Z,90.00
2023-01-13T09:43:39.505Z,89.60
2023-01-13T09:46:36.246Z,89.00
2023-01-13T09:49:04.367Z,88.10
2023-01-13T09:51:38.970Z,87.60
2023-01-13T09:54:20.333Z,86.80
2023-01-13T09:56:47.525Z,86.20
2023-01-13T09:59:16.440Z,85.70
2023-01-13T10:01:54.391Z,85.20
2023-01-13T10:08:44.693Z,84.50
2023-01-13T10:11:40.265Z,83.90
2023-01-13T10:14:24.213Z,83.80
2023-01-13T10:17:12.402Z,84.00
2023-01-13T10:19:48.758Z,83.90
2023-01-13T10:22:44.896Z,83.10
2023-01-13T10:25:36.855Z,81.80
2023-01-13T10:28:13.049Z,81.40
2023-01-13T10:30:45.221Z,80.80
2023-01-13T10:33:15.920Z,80.20
2023-01-13T10:36:16.931Z,79.80
2023-01-13T10:38:46.164Z,79.50
2023-01-13T10:41:16.299Z,79.20
2023-01-13T10:43:44.589Z,78.80
2023-01-13T10:46:17.638Z,78.40
2023-01-13T10:48:56.015Z,78.10
2023-01-13T10:51:38.272Z,78.00
2023-01-13T10:54:25.719Z,77.70
2023-01-13T10:57:20.059Z,77.50
2023-01-13T10:59:48.292Z,77.00
2023-01-13T11:02:27.183Z,76.50
2023-01-13T11:05:02.796Z,75.50
2023-01-13T11:07:39.612Z,74.80
2023-01-13T11:10:09.894Z,74.00
2023-01-13T11:13:05.518Z,72.90
2023-01-13T11:19:12.165Z,70.50
2023-01-13T11:21:54.559Z,69.80
2023-01-13T11:24:42.589Z,70.30
2023-01-13T11:27:44.388Z,70.70
2023-01-13T11:30:50.773Z,69.90
2023-01-13T11:33:37.798Z,69.60
2023-01-13T11:36:20.723Z,69.10
2023-01-13T11:38:54.592Z,69.50
2023-01-13T11:41:45.073Z,70.50
2023-01-13T11:44:27.811Z,69.70
2023-01-13T11:46:55.840Z,69.60
2023-01-13T11:49:32.532Z,69.20
2023-01-13T11:52:21.498Z,68.90
2023-01-13T11:55:07.909Z,68.60
2023-01-13T11:57:55.843Z,68.60
2023-01-13T12:00:47.111Z,68.90
2023-01-13T12:03:42.203Z,68.90
2023-01-13T12:06:20.416Z,68.50
2023-01-13T12:09:12.016Z,68.60
2023-01-13T12:12:03.445Z,68.20
2023-01-13T12:14:52.733Z,68.10
2023-01-13T12:17:42.328Z,67.80
2023-01-13T12:20:25.743Z,67.20
2023-01-13T12:22:56.775Z,67.00
2023-01-13T12:25:40.473Z,67.00
2023-01-13T12:28:15.248Z,66.70
2023-01-13T12:30:44.998Z,66.60
2023-01-13T12:33:42.410Z,66.60
2023-01-13T12:36:22.426Z,66.40
2023-01-13T12:39:04.343Z,65.70
2023-01-13T12:42:08.386Z,65.20
2023-01-13T12:44:35.369Z,65.20
2023-01-13T12:47:02.377Z,64.80
2023-01-13T12:49:34.793Z,64.40
2023-01-13T12:52:07.844Z,63.80
2023-01-13T12:54:37.802Z,63.50
2023-01-13T12:57:16.990Z,63.10
2023-01-13T12:59:49.151Z,62.70
2023-01-13T13:02:24.974Z,62.30
2023-01-13T13:04:56.180Z,62.20
2023-01-13T13:07:48.687Z,61.60
2023-01-13T13:10:28.077Z,60.60
2023-01-13T13:13:18.292Z,59.90
2023-01-13T13:15:50.592Z,60.00
2023-01-13T13:18:17.486Z,60.00
2023-01-13T13:21:08.657Z,60.50
2023-01-13T13:23:47.897Z,61.30
2023-01-13T13:26:19.949Z,61.80
2023-01-13T13:28:57.218Z,62.00
2023-01-13T13:31:36.092Z,62.30
2023-01-13T13:34:35.038Z,62.50
2023-01-13T13:37:23.895Z,62.90
2023-01-13T13:40:09.525Z,64.20
2023-01-13T13:43:01.711Z,65.80
2023-01-13T13:45:48.136Z,66.80
2023-01-13T13:48:25.308Z,66.80
2023-01-13T13:51:01.746Z,66.70
2023-01-13T13:53:33.006Z,66.60
2023-01-13T13:56:02.794Z,66.70
2023-01-13T13:58:34.002Z,66.80
2023-01-13T14:01:01.507Z,66.80
2023-01-13T14:03:39.004Z,66.80
2023-01-13T14:06:07.963Z,66.90
2023-01-13T14:08:37.843Z,67.40
2023-01-13T14:11:32.289Z,67.80
2023-01-13T14:14:17.340Z,67.70
2023-01-13T14:16:44.235Z,67.60
2023-01-13T14:19:35.380Z,67.20
2023-01-13T14:22:04.925Z,67.00
2023-01-13T14:24:32.333Z,66.80
2023-01-13T14:27:17.211Z,66.50
2023-01-13T14:29:45.000Z,66.40
2023-01-13T14:32:18.421Z,66.50
2023-01-13T14:34:46.114Z,66.50
2023-01-13T14:37:40.279Z,66.70
2023-01-13T14:40:27.692Z,66.70
2023-01-13T14:43:10.631Z,66.60
2023-01-13T14:45:37.748Z,66.30
2023-01-13T14:48:08.550Z,66.10
2023-01-13T14:50:35.522Z,66.20
2023-01-13T14:53:02.423Z,66.30
2023-01-13T14:55:34.517Z,66.40
2023-01-13T14:58:17.358Z,66.40
2023-01-13T15:00:44.599Z,66.30
2023-01-13T15:03:14.940Z,66.20
2023-01-13T15:05:51.287Z,66.20
2023-01-13T15:08:29.523Z,66.30
2023-01-13T15:11:00.521Z,66.80
2023-01-13T15:13:39.527Z,67.30
2023-01-13T15:16:22.480Z,67.70
2023-01-13T15:18:49.541Z,67.90
2023-01-13T15:21:17.350Z,67.90
2023-01-13T15:23:45.039Z,68.10
2023-01-13T15:26:27.035Z,68.40
2023-01-13T15:28:56.144Z,68.80
2023-01-13T15:31:24.792Z,69.20
2023-01-13T15:33:51.906Z,69.40
2023-01-13T15:36:32.299Z,69.60
2023-01-13T15:39:00.767Z,69.80
2023-01-13T15:41:47.047Z,70.00
2023-01-13T15:44:35.078Z,70.10
2023-01-13T15:47:05.140Z,70.20
2023-01-13T15:49:44.931Z,70.20
2023-01-13T15:52:21.450Z,70.30
2023-01-13T15:54:49.604Z,70.30
2023-01-13T15:57:27.320Z,70.30
2023-01-13T16:00:00.966Z,70.30
2023-01-13T16:02:29.720Z,70.30
2023-01-13T16:04:57.153Z,70.30
2023-01-13T16:07:25.160Z,70.50
2023-01-13T16:09:52.565Z,70.90
2023-01-13T16:12:19.966Z,71.20
2023-01-13T16:14:46.928Z,71.50
2023-01-13T16:17:19.589Z,71.80
2023-01-13T16:19:47.426Z,72.00
2023-01-13T16:22:16.578Z,72.40
2023-01-13T16:24:44.453Z,72.60
2023-01-13T16:27:24.451Z,72.70
2023-01-13T16:29:52.459Z,72.60
2023-01-13T16:32:20.977Z,72.50
2023-01-13T16:34:48.311Z,72.40
2023-01-13T16:37:23.791Z,72.40
2023-01-13T16:39:51.382Z,72.00
2023-01-13T16:42:18.585Z,71.80
2023-01-13T16:44:48.034Z,71.60
2023-01-13T16:47:16.876Z,71.50
2023-01-13T16:49:44.514Z,71.40
2023-01-13T16:52:11.697Z,71.40
2023-01-13T16:54:38.668Z,71.40
2023-01-13T16:57:07.394Z,71.50
2023-01-13T16:59:34.327Z,71.60
2023-01-13T17:02:02.149Z,71.70
2023-01-13T17:04:29.249Z,71.80
2023-01-13T17:07:00.442Z,71.80
2023-01-13T17:09:29.166Z,72.00
2023-01-13T17:11:56.917Z,72.10
2023-01-13T17:14:24.984Z,72.20
2023-01-13T17:16:54.700Z,72.90
2023-01-13T17:19:23.413Z,73.90
2023-01-13T17:21:51.186Z,74.60
2023-01-13T17:24:18.402Z,75.00
2023-01-13T17:26:59.681Z,75.20
2023-01-13T17:29:39.947Z,75.40
2023-01-13T17:32:19.611Z,75.70
2023-01-13T17:34:57.637Z,76.00
2023-01-13T17:37:31.296Z,76.00
2023-01-13T17:43:10.021Z,75.80
2023-01-13T17:45:58.580Z,75.70
2023-01-13T17:48:29.366Z,75.60
2023-01-13T17:51:31.911Z,75.80
2023-01-13T17:54:11.191Z,75.80
2023-01-13T17:56:45.492Z,75.90
2023-01-13T17:59:38.812Z,75.90
2023-01-13T18:02:20.890Z,76.10
2023-01-13T18:11:30.631Z,76.60
2023-01-13T18:14:17.468Z,76.70
2023-01-13T18:17:01.154Z,76.80
2023-01-13T18:23:06.972Z,77.10
2023-01-13T18:26:05.665Z,77.20
2023-01-13T18:28:46.479Z,77.20
2023-01-13T18:31:20.963Z,77.30
2023-01-13T18:33:58.959Z,77.40
2023-01-13T18:36:31.279Z,77.40
2023-01-13T18:39:15.479Z,77.30
2023-01-13T18:44:59.739Z,77.30
2023-01-13T18:47:32.012Z,77.20
2023-01-13T18:50:05.784Z,77.20
2023-01-13T18:52:46.796Z,77.10
2023-01-13T18:58:30.636Z,76.80
2023-01-13T19:01:07.989Z,76.60
2023-01-13T19:03:41.716Z,76.40
2023-01-13T19:06:24.740Z,76.20
2023-01-13T19:09:11.728Z,75.90
2023-01-13T19:11:56.114Z,75.70
2023-01-13T19:14:35.645Z,75.60
2023-01-13T19:17:28.611Z,75.40
2023-01-13T19:20:01.545Z,75.20
2023-01-13T19:22:40.091Z,74.90
2023-01-13T19:25:10.982Z,74.70
2023-01-13T19:27:42.996Z,74.30
2023-01-13T19:30:13.715Z,73.90
2023-01-13T19:32:52.294Z,73.60
2023-01-13T19:35:28.620Z,73.40
2023-01-13T19:38:11.739Z,73.40
2023-01-13T19:40:45.874Z,73.30
2023-01-13T19:43:34.327Z,73.20
2023-01-13T19:46:18.581Z,73.20
2023-01-13T19:48:46.660Z,73.00
2023-01-13T19:51:22.987Z,73.10
2023-01-13T19:54:03.624Z,73.10
2023-01-13T19:56:39.543Z,73.00
2023-01-13T19:59:25.107Z,73.00
2023-01-13T20:02:11.134Z,73.40
2023-01-13T20:08:21.461Z,73.10
2023-01-13T20:11:20.402Z,73.30
2023-01-13T20:14:02.337Z,73.20
2023-01-13T20:16:47.148Z,73.30
2023-01-13T20:19:19.979Z,73.40
2023-01-13T20:21:57.417Z,73.80
2023-01-13T20:24:27.281Z,74.00
2023-01-13T20:26:55.250Z,74.40
2023-01-13T20:29:22.541Z,74.80
2023-01-13T20:31:50.344Z,75.10
2023-01-13T20:34:20.541Z,75.30
2023-01-13T20:36:48.954Z,75.20
2023-01-13T20:39:18.170Z,75.30
2023-01-13T20:42:04.366Z,75.40
2023-01-13T20:44:31.350Z,75.80
2023-01-13T20:46:59.106Z,75.90
2023-01-13T20:49:27.855Z,76.00
2023-01-13T20:51:55.748Z,76.20
2023-01-13T20:54:23.104Z,76.20
2023-01-13T20:56:50.132Z,76.10
2023-01-13T20:59:17.335Z,76.30
2023-01-13T21:01:44.300Z,76.30
2023-01-13T21:04:11.409Z,76.30
2023-01-13T21:06:38.411Z,76.30
2023-01-13T21:09:05.331Z,76.30
2023-01-13T21:11:50.728Z,76.30
2023-01-13T21:14:42.079Z,76.20
2023-01-13T21:17:32.317Z,76.20
2023-01-13T21:19:59.284Z,76.10
2023-01-13T21:22:26.813Z,76.30
2023-01-13T21:24:53.816Z,76.70
2023-01-13T21:27:20.998Z,77.30
2023-01-13T21:29:47.923Z,77.60
2023-01-13T21:32:14.797Z,77.70
2023-01-13T21:34:41.782Z,77.50
2023-01-13T21:37:08.894Z,77.60
2023-01-13T21:39:36.176Z,77.40
2023-01-13T21:42:21.601Z,77.60
2023-01-13T21:45:06.861Z,77.70
2023-01-13T21:47:48.749Z,77.70
2023-01-13T21:50:24.410Z,77.60
2023-01-13T21:52:55.062Z,77.80
2023-01-13T21:55:25.343Z,78.10
2023-01-13T21:57:57.857Z,78.20
2023-01-13T22:00:27.562Z,78.50
2023-01-13T22:02:54.546Z,78.50
2023-01-13T22:05:23.280Z,78.50
2023-01-13T22:07:50.935Z,78.40
2023-01-13T22:10:20.927Z,78.20
2023-01-13T22:12:48.680Z,78.40
2023-01-13T22:15:17.863Z,78.50
2023-01-13T22:17:45.802Z,78.60
2023-01-13T22:20:13.393Z,78.60
2023-01-13T22:22:40.397Z,78.80
2023-01-13T22:25:10.676Z,79.00
2023-01-13T22:27:40.701Z,79.20
2023-01-13T22:30:21.807Z,79.40
2023-01-13T22:32:48.841Z,79.50
2023-01-13T22:35:16.576Z,79.60
2023-01-13T22:37:43.451Z,79.60
2023-01-13T22:40:11.892Z,79.40
2023-01-13T22:42:39.725Z,79.30
2023-01-13T22:45:14.003Z,79.20
2023-01-13T22:47:40.948Z,79.00
2023-01-13T22:50:09.896Z,78.70
2023-01-13T22:52:36.831Z,78.60
2023-01-13T22:55:04.293Z,78.40
2023-01-13T22:57:47.590Z,78.30
2023-01-13T23:00:18.853Z,78.30
2023-01-13T23:02:46.100Z,78.20
2023-01-13T23:05:13.872Z,78.20
2023-01-13T23:07:41.122Z,78.00
2023-01-13T23:10:08.621Z,77.90
2023-01-13T23:12:35.481Z,77.80
2023-01-13T23:15:02.578Z,77.70
2023-01-13T23:17:29.570Z,78.40
2023-01-13T23:19:57.078Z,77.70
2023-01-13T23:22:23.993Z,77.60
2023-01-13T23:24:50.920Z,77.60
2023-01-13T23:27:17.831Z,77.50
2023-01-13T23:29:44.686Z,77.20
2023-01-13T23:32:11.564Z,77.00
2023-01-13T23:34:38.483Z,76.80
2023-01-13T23:37:05.393Z,76.60
2023-01-13T23:39:32.285Z,76.60
2023-01-13T23:41:59.574Z,76.50
2023-01-13T23:44:26.511Z,76.30
2023-01-13T23:46:53.335Z,76.00
2023-01-13T23:49:20.552Z,75.90
2023-01-13T23:51:51.006Z,75.80
2023-01-13T23:54:18.851Z,75.80
2023-01-13T23:56:45.757Z,75.60
2023-01-13T23:59:12.714Z,75.60
